sensor_id;sensor_type;location;lat;lon;timestamp;pressure;altitude;pressure_sealevel;temperature;humidity
8039;BME280;4062;49.844;8.120;2023-03-04T00:00:47;100063.88;;;14.23;53.22
8039;BME280;4062;49.844;8.120;2023-03-04T00:02:48;100071.00;;;14.22;53.32
8039;BME280;4062;49.844;8.120;2023-03-04T00:04:49;100058.56;;;14.23;53.30
8039;BME280;4062;49.844;8.120;2023-03-04T00:06:50;100060.38;;;14.22;53.42
8039;BME280;4062;49.844;8.120;2023-03-04T00:08:51;100063.88;;;14.23;53.11
8039;BME280;4062;49.844;8.120;2023-03-04T00:10:51;100066.53;;;14.23;53.23
8039;BME280;4062;49.844;8.120;2023-03-04T00:12:53;100061.22;;;14.23;53.38
8039;BME280;4062;49.844;8.120;2023-03-04T00:14:54;100067.47;;;14.22;53.29
8039;BME280;4062;49.844;8.120;2023-03-04T00:16:55;100070.94;;;14.24;53.33
8039;BME280;4062;49.844;8.120;2023-03-04T00:18:56;100071.84;;;14.23;53.29
8039;BME280;4062;49.844;8.120;2023-03-04T00:20:57;100076.25;;;14.24;53.35
8039;BME280;4062;49.844;8.120;2023-03-04T00:22:58;100070.94;;;14.24;53.24
8039;BME280;4062;49.844;8.120;2023-03-04T00:24:59;100075.38;;;14.23;53.38
8039;BME280;4062;49.844;8.120;2023-03-04T00:27:00;100071.84;;;14.23;53.39
8039;BME280;4062;49.844;8.120;2023-03-04T00:29:01;100070.06;;;14.23;53.36
8039;BME280;4062;49.844;8.120;2023-03-04T00:31:02;100072.72;;;14.23;53.23
8039;BME280;4062;49.844;8.120;2023-03-04T00:33:03;100077.13;;;14.25;53.55
8039;BME280;4062;49.844;8.120;2023-03-04T00:35:05;100075.38;;;14.23;53.31
8039;BME280;4062;49.844;8.120;2023-03-04T00:37:06;100072.72;;;14.23;53.30
8039;BME280;4062;49.844;8.120;2023-03-04T00:39:07;100066.53;;;14.23;53.28
8039;BME280;4062;49.844;8.120;2023-03-04T00:41:09;100072.72;;;14.23;53.22
8039;BME280;4062;49.844;8.120;2023-03-04T00:43:10;100070.06;;;14.23;53.36
8039;BME280;4062;49.844;8.120;2023-03-04T00:45:11;100076.25;;;14.24;53.28
8039;BME280;4062;49.844;8.120;2023-03-04T00:47:12;100070.06;;;14.23;53.42
8039;BME280;4062;49.844;8.120;2023-03-04T00:49:13;100061.22;;;14.23;53.34
8039;BME280;4062;49.844;8.120;2023-03-04T00:51:14;100070.94;;;14.24;53.18
8039;BME280;4062;49.844;8.120;2023-03-04T00:53:15;100066.53;;;14.23;53.50
8039;BME280;4062;49.844;8.120;2023-03-04T00:55:16;100069.19;;;14.23;53.36
8039;BME280;4062;49.844;8.120;2023-03-04T00:57:17;100058.56;;;14.23;53.29
8039;BME280;4062;49.844;8.120;2023-03-04T00:59:18;100067.41;;;14.23;53.15
8039;BME280;4062;49.844;8.120;2023-03-04T01:01:18;100063.88;;;14.23;53.36
8039;BME280;4062;49.844;8.120;2023-03-04T01:03:19;100063.03;;;14.22;53.49
8039;BME280;4062;49.844;8.120;2023-03-04T01:05:21;100058.56;;;14.23;53.35
8039;BME280;4062;49.844;8.120;2023-03-04T01:07:22;100056.78;;;14.23;53.36
8039;BME280;4062;49.844;8.120;2023-03-04T01:09:23;100058.56;;;14.23;53.34
8039;BME280;4062;49.844;8.120;2023-03-04T01:11:24;100055.91;;;14.23;53.37
8039;BME280;4062;49.844;8.120;2023-03-04T01:13:24;100051.50;;;14.22;53.30
8039;BME280;4062;49.844;8.120;2023-03-04T01:15:25;100053.25;;;14.23;53.38
8039;BME280;4062;49.844;8.120;2023-03-04T01:17:26;100050.59;;;14.23;53.37
8039;BME280;4062;49.844;8.120;2023-03-04T01:19:27;100053.25;;;14.23;53.39
8039;BME280;4062;49.844;8.120;2023-03-04T01:21:28;100046.19;;;14.22;53.46
8039;BME280;4062;49.844;8.120;2023-03-04T01:23:29;100045.28;;;14.23;53.25
8039;BME280;4062;49.844;8.120;2023-03-04T01:25:30;100048.84;;;14.22;53.30
8039;BME280;4062;49.844;8.120;2023-03-04T01:27:33;100046.19;;;14.22;53.19
8039;BME280;4062;49.844;8.120;2023-03-04T01:29:33;100040.88;;;14.22;53.29
8039;BME280;4062;49.844;8.120;2023-03-04T01:31:36;100039.97;;;14.23;53.34
8039;BME280;4062;49.844;8.120;2023-03-04T01:33:37;100037.38;;;14.21;53.32
8039;BME280;4062;49.844;8.120;2023-03-04T01:35:38;100038.22;;;14.22;53.45
8039;BME280;4062;49.844;8.120;2023-03-04T01:37:39;100040.03;;;14.21;53.36
8039;BME280;4062;49.844;8.120;2023-03-04T01:39:40;100045.34;;;14.21;53.29
8039;BME280;4062;49.844;8.120;2023-03-04T01:41:40;100036.47;;;14.21;53.35
8039;BME280;4062;49.844;8.120;2023-03-04T01:43:41;100027.59;;;14.22;53.25
8039;BME280;4062;49.844;8.120;2023-03-04T01:45:42;100027.59;;;14.22;53.33
8039;BME280;4062;49.844;8.120;2023-03-04T01:47:45;100025.84;;;14.21;53.22
8039;BME280;4062;49.844;8.120;2023-03-04T01:49:53;100027.66;;;14.20;53.25
8039;BME280;4062;49.844;8.120;2023-03-04T01:51:55;100024.06;;;14.21;53.21
8039;BME280;4062;49.844;8.120;2023-03-04T01:53:56;100022.34;;;14.20;53.33
8039;BME280;4062;49.844;8.120;2023-03-04T01:56:12;100025.91;;;14.19;53.36
8039;BME280;4062;49.844;8.120;2023-03-04T01:58:14;100025.00;;;14.20;53.32
8039;BME280;4062;49.844;8.120;2023-03-04T02:00:33;100019.66;;;14.20;53.16
8039;BME280;4062;49.844;8.120;2023-03-04T02:02:34;100014.34;;;14.20;53.34
8039;BME280;4062;49.844;8.120;2023-03-04T02:04:36;100017.00;;;14.20;53.30
8039;BME280;4062;49.844;8.120;2023-03-04T02:06:38;100012.59;;;14.19;52.93
8039;BME280;4062;49.844;8.120;2023-03-04T02:08:40;100012.56;;;14.21;53.45
8039;BME280;4062;49.844;8.120;2023-03-04T02:10:42;100009.94;;;14.19;53.40
8039;BME280;4062;49.844;8.120;2023-03-04T02:12:44;100004.63;;;14.19;53.43
8039;BME280;4062;49.844;8.120;2023-03-04T02:14:45;100002.84;;;14.20;53.34
8039;BME280;4062;49.844;8.120;2023-03-04T02:16:47;99997.53;;;14.20;53.28
8039;BME280;4062;49.844;8.120;2023-03-04T02:18:49;100000.19;;;14.20;53.19
8039;BME280;4062;49.844;8.120;2023-03-04T02:21:25;99996.66;;;14.19;53.23
8039;BME280;4062;49.844;8.120;2023-03-04T02:23:48;99991.34;;;14.19;53.31
8039;BME280;4062;49.844;8.120;2023-03-04T02:26:18;99990.47;;;14.19;53.43
8039;BME280;4062;49.844;8.120;2023-03-04T02:28:21;99993.13;;;14.19;53.26
8039;BME280;4062;49.844;8.120;2023-03-04T02:30:23;99987.81;;;14.19;53.27
8039;BME280;4062;49.844;8.120;2023-03-04T02:32:25;99986.94;;;14.18;53.35
8039;BME280;4062;49.844;8.120;2023-03-04T02:34:32;99987.81;;;14.19;53.21
8039;BME280;4062;49.844;8.120;2023-03-04T02:36:35;99985.16;;;14.19;53.39
8039;BME280;4062;49.844;8.120;2023-03-04T02:38:36;99987.81;;;14.19;53.33
8039;BME280;4062;49.844;8.120;2023-03-04T02:40:39;99986.09;;;14.18;53.39
8039;BME280;4062;49.844;8.120;2023-03-04T02:42:43;99986.94;;;14.18;53.38
8039;BME280;4062;49.844;8.120;2023-03-04T02:44:46;99980.78;;;14.18;53.21
8039;BME280;4062;49.844;8.120;2023-03-04T02:46:50;99986.09;;;14.18;53.25
8039;BME280;4062;49.844;8.120;2023-03-04T02:48:52;99983.44;;;14.18;53.34
8039;BME280;4062;49.844;8.120;2023-03-04T02:50:53;99979.03;;;14.17;53.39
8039;BME280;4062;49.844;8.120;2023-03-04T02:52:54;99985.19;;;14.17;53.42
8039;BME280;4062;49.844;8.120;2023-03-04T02:54:55;99982.53;;;14.17;53.29
8039;BME280;4062;49.844;8.120;2023-03-04T02:57:02;99978.16;;;14.16;53.32
8039;BME280;4062;49.844;8.120;2023-03-04T02:59:07;99971.06;;;14.17;53.29
8039;BME280;4062;49.844;8.120;2023-03-04T03:01:08;99975.47;;;14.18;53.40
8039;BME280;4062;49.844;8.120;2023-03-04T03:03:09;99971.91;;;14.17;52.92
8039;BME280;4062;49.844;8.120;2023-03-04T03:05:11;99971.91;;;14.17;53.26
8039;BME280;4062;49.844;8.120;2023-03-04T03:07:14;99979.03;;;14.17;53.29
8039;BME280;4062;49.844;8.120;2023-03-04T03:09:16;99980.81;;;14.16;53.53
8039;BME280;4062;49.844;8.120;2023-03-04T03:11:17;99974.63;;;14.16;53.40
8039;BME280;4062;49.844;8.120;2023-03-04T03:13:18;99979.03;;;14.17;53.23
8039;BME280;4062;49.844;8.120;2023-03-04T03:15:20;99973.72;;;14.17;53.22
8039;BME280;4062;49.844;8.120;2023-03-04T03:17:21;99977.28;;;14.16;53.25
8039;BME280;4062;49.844;8.120;2023-03-04T03:19:22;99969.31;;;14.16;53.41
8039;BME280;4062;49.844;8.120;2023-03-04T03:21:24;99971.09;;;14.15;53.43
8039;BME280;4062;49.844;8.120;2023-03-04T03:23:25;99976.41;;;14.15;53.26
8039;BME280;4062;49.844;8.120;2023-03-04T03:25:26;99972.88;;;14.15;53.33
8039;BME280;4062;49.844;8.120;2023-03-04T03:27:27;99978.19;;;14.15;53.36
8039;BME280;4062;49.844;8.120;2023-03-04T03:29:29;99972.88;;;14.15;53.26
8039;BME280;4062;49.844;8.120;2023-03-04T03:31:30;99965.78;;;14.15;53.30
8039;BME280;4062;49.844;8.120;2023-03-04T03:33:30;99976.41;;;14.15;53.35
8039;BME280;4062;49.844;8.120;2023-03-04T03:35:31;99969.34;;;14.14;53.23
8039;BME280;4062;49.844;8.120;2023-03-04T03:37:32;99961.38;;;14.14;53.29
8039;BME280;4062;49.844;8.120;2023-03-04T03:39:33;99964.03;;;14.14;53.29
8039;BME280;4062;49.844;8.120;2023-03-04T03:41:34;99964.91;;;14.15;53.29
8039;BME280;4062;49.844;8.120;2023-03-04T03:43:35;99964.91;;;14.15;53.40
8039;BME280;4062;49.844;8.120;2023-03-04T03:45:36;99965.78;;;14.15;53.36
8039;BME280;4062;49.844;8.120;2023-03-04T03:47:37;99957.00;;;14.13;53.42
8039;BME280;4062;49.844;8.120;2023-03-04T03:49:38;99961.38;;;14.14;53.38
8039;BME280;4062;49.844;8.120;2023-03-04T03:51:38;99968.47;;;14.14;53.36
8039;BME280;4062;49.844;8.120;2023-03-04T03:53:39;99961.38;;;14.14;53.25
8039;BME280;4062;49.844;8.120;2023-03-04T03:55:40;99957.00;;;14.13;53.29
8039;BME280;4062;49.844;8.120;2023-03-04T03:57:41;99964.03;;;14.14;53.23
8039;BME280;4062;49.844;8.120;2023-03-04T03:59:42;99959.66;;;14.13;53.12
8039;BME280;4062;49.844;8.120;2023-03-04T04:01:43;99961.41;;;14.13;53.31
8039;BME280;4062;49.844;8.120;2023-03-04T04:03:44;99962.31;;;14.13;53.22
8039;BME280;4062;49.844;8.120;2023-03-04T04:05:45;99958.75;;;14.13;53.29
8039;BME280;4062;49.844;8.120;2023-03-04T04:07:46;99958.75;;;14.13;53.39
8039;BME280;4062;49.844;8.120;2023-03-04T04:09:47;99960.50;;;14.14;53.23
8039;BME280;4062;49.844;8.120;2023-03-04T04:11:47;99956.09;;;14.13;53.38
8039;BME280;4062;49.844;8.120;2023-03-04T04:13:48;99952.59;;;14.12;53.33
8039;BME280;4062;49.844;8.120;2023-03-04T04:15:53;99957.91;;;14.12;53.38
8039;BME280;4062;49.844;8.120;2023-03-04T04:17:54;99960.56;;;14.12;53.23
8039;BME280;4062;49.844;8.120;2023-03-04T04:19:55;99967.66;;;14.12;53.43
8039;BME280;4062;49.844;8.120;2023-03-04T04:21:55;99960.56;;;14.12;53.35
8039;BME280;4062;49.844;8.120;2023-03-04T04:23:56;99964.06;;;14.13;53.35
8039;BME280;4062;49.844;8.120;2023-03-04T04:25:57;99959.69;;;14.12;53.38
8039;BME280;4062;49.844;8.120;2023-03-04T04:27:58;99965.00;;;14.12;53.22
8039;BME280;4062;49.844;8.120;2023-03-04T04:29:59;99962.34;;;14.12;53.28
8039;BME280;4062;49.844;8.120;2023-03-04T04:32:00;99965.00;;;14.12;53.42
8039;BME280;4062;49.844;8.120;2023-03-04T04:34:01;99957.94;;;14.11;53.26
8039;BME280;4062;49.844;8.120;2023-03-04T04:36:02;99956.16;;;14.11;53.30
8039;BME280;4062;49.844;8.120;2023-03-04T04:38:06;99953.50;;;14.11;53.32
8039;BME280;4062;49.844;8.120;2023-03-04T04:40:08;99952.63;;;14.11;53.43
8039;BME280;4062;49.844;8.120;2023-03-04T04:42:10;99961.47;;;14.11;53.38
8039;BME280;4062;49.844;8.120;2023-03-04T04:44:12;99954.41;;;14.10;53.37
8039;BME280;4062;49.844;8.120;2023-03-04T04:46:14;99958.84;;;14.10;53.44
8039;BME280;4062;49.844;8.120;2023-03-04T04:48:15;99957.06;;;14.10;53.40
8039;BME280;4062;49.844;8.120;2023-03-04T04:50:16;99959.72;;;14.10;53.45
8039;BME280;4062;49.844;8.120;2023-03-04T04:52:17;99953.53;;;14.10;53.37
8039;BME280;4062;49.844;8.120;2023-03-04T04:54:18;99958.84;;;14.10;53.28
8039;BME280;4062;49.844;8.120;2023-03-04T04:56:23;99961.50;;;14.10;53.38
8039;BME280;4062;49.844;8.120;2023-03-04T04:58:25;99962.41;;;14.10;53.31
8039;BME280;4062;49.844;8.120;2023-03-04T05:00:26;99963.31;;;14.09;53.35
8039;BME280;4062;49.844;8.120;2023-03-04T05:02:27;99964.16;;;14.10;53.25
8039;BME280;4062;49.844;8.120;2023-03-04T05:04:28;99959.78;;;14.09;53.32
8039;BME280;4062;49.844;8.120;2023-03-04T05:06:29;99962.44;;;14.09;53.21
8039;BME280;4062;49.844;8.120;2023-03-04T05:08:30;99960.66;;;14.09;53.22
8039;BME280;4062;49.844;8.120;2023-03-04T05:10:31;99960.66;;;14.09;53.29
8039;BME280;4062;49.844;8.120;2023-03-04T05:12:32;99958.91;;;14.08;53.20
8039;BME280;4062;49.844;8.120;2023-03-04T05:14:33;99965.97;;;14.09;53.21
8039;BME280;4062;49.844;8.120;2023-03-04T05:16:34;99954.47;;;14.09;53.27
8039;BME280;4062;49.844;8.120;2023-03-04T05:18:35;99951.84;;;14.07;53.48
8039;BME280;4062;49.844;8.120;2023-03-04T05:20:36;99955.38;;;14.07;53.27
8039;BME280;4062;49.844;8.120;2023-03-04T05:22:37;99953.59;;;14.08;53.29
8039;BME280;4062;49.844;8.120;2023-03-04T05:24:37;99947.41;;;14.07;53.28
8039;BME280;4062;49.844;8.120;2023-03-04T05:26:38;99949.19;;;14.07;53.27
8039;BME280;4062;49.844;8.120;2023-03-04T05:28:39;99949.19;;;14.07;53.23
8039;BME280;4062;49.844;8.120;2023-03-04T05:30:42;99950.06;;;14.07;53.37
8039;BME280;4062;49.844;8.120;2023-03-04T05:32:43;99953.66;;;14.06;53.43
8039;BME280;4062;49.844;8.120;2023-03-04T05:34:44;99951.84;;;14.07;53.42
8039;BME280;4062;49.844;8.120;2023-03-04T05:36:45;99951.00;;;14.06;53.23
8039;BME280;4062;49.844;8.120;2023-03-04T05:38:46;99951.00;;;14.06;53.28
8039;BME280;4062;49.844;8.120;2023-03-04T05:40:47;99951.84;;;14.07;53.81
8039;BME280;4062;49.844;8.120;2023-03-04T05:42:48;99955.41;;;14.06;53.35
8039;BME280;4062;49.844;8.120;2023-03-04T05:44:49;99955.41;;;14.06;53.37
8039;BME280;4062;49.844;8.120;2023-03-04T05:46:50;99955.41;;;14.06;53.29
8039;BME280;4062;49.844;8.120;2023-03-04T05:48:52;99959.88;;;14.05;53.33
8039;BME280;4062;49.844;8.120;2023-03-04T05:50:58;99960.72;;;14.06;53.44
8039;BME280;4062;49.844;8.120;2023-03-04T05:52:59;99964.28;;;14.06;53.33
8039;BME280;4062;49.844;8.120;2023-03-04T05:55:00;99958.97;;;14.05;53.27
8039;BME280;4062;49.844;8.120;2023-03-04T05:57:01;99961.63;;;14.05;53.33
8039;BME280;4062;49.844;8.120;2023-03-04T05:59:02;99958.97;;;14.05;53.42
8039;BME280;4062;49.844;8.120;2023-03-04T06:01:03;99961.63;;;14.05;53.43
8039;BME280;4062;49.844;8.120;2023-03-04T06:03:04;99952.81;;;14.04;53.41
8039;BME280;4062;49.844;8.120;2023-03-04T06:05:07;99962.53;;;14.05;53.41
8039;BME280;4062;49.844;8.120;2023-03-04T06:07:08;99958.13;;;14.04;53.34
8039;BME280;4062;49.844;8.120;2023-03-04T06:09:09;99972.25;;;14.05;53.35
8039;BME280;4062;49.844;8.120;2023-03-04T06:11:09;99965.19;;;14.05;53.37
8039;BME280;4062;49.844;8.120;2023-03-04T06:13:11;99957.16;;;14.07;53.32
8039;BME280;4062;49.844;8.120;2023-03-04T06:15:12;99958.91;;;14.08;53.35
8039;BME280;4062;49.844;8.120;2023-03-04T06:17:13;99960.66;;;14.09;53.42
8039;BME280;4062;49.844;8.120;2023-03-04T06:19:14;99965.91;;;14.11;53.47
8039;BME280;4062;49.844;8.120;2023-03-04T06:21:15;99970.31;;;14.12;53.46
8039;BME280;4062;49.844;8.120;2023-03-04T06:23:16;99971.13;;;14.14;53.51
8039;BME280;4062;49.844;8.120;2023-03-04T06:25:17;99974.63;;;14.16;53.70
8039;BME280;4062;49.844;8.120;2023-03-04T06:27:18;99979.88;;;14.17;53.55
8039;BME280;4062;49.844;8.120;2023-03-04T06:29:19;99968.34;;;14.18;53.52
8039;BME280;4062;49.844;8.120;2023-03-04T06:31:20;99978.91;;;14.21;53.65
8039;BME280;4062;49.844;8.120;2023-03-04T06:33:22;99978.84;;;14.23;53.63
8039;BME280;4062;49.844;8.120;2023-03-04T06:35:23;99980.59;;;14.24;53.61
8039;BME280;4062;49.844;8.120;2023-03-04T06:37:24;99984.94;;;14.27;53.46
8039;BME280;4062;49.844;8.120;2023-03-04T06:39:25;99989.28;;;14.29;53.75
8039;BME280;4062;49.844;8.120;2023-03-04T06:41:26;99980.38;;;14.30;53.58
8039;BME280;4062;49.844;8.120;2023-03-04T06:43:27;99985.66;;;14.32;53.65
8039;BME280;4062;49.844;8.120;2023-03-04T06:45:28;99988.28;;;14.33;53.52
8039;BME280;4062;49.844;8.120;2023-03-04T06:47:29;99993.53;;;14.35;53.47
8039;BME280;4062;49.844;8.120;2023-03-04T06:49:30;99989.97;;;14.36;53.52
8039;BME280;4062;49.844;8.120;2023-03-04T06:51:31;99988.16;;;14.36;53.59
8039;BME280;4062;49.844;8.120;2023-03-04T06:53:32;99992.56;;;14.37;53.45
8039;BME280;4062;49.844;8.120;2023-03-04T06:55:32;99996.97;;;14.38;53.46
8039;BME280;4062;49.844;8.120;2023-03-04T06:57:34;99999.63;;;14.38;53.61
8039;BME280;4062;49.844;8.120;2023-03-04T06:59:34;100001.44;;;14.38;53.61
8039;BME280;4062;49.844;8.120;2023-03-04T07:01:35;99999.63;;;14.38;53.40
8039;BME280;4062;49.844;8.120;2023-03-04T07:03:37;99996.97;;;14.38;53.58
8039;BME280;4062;49.844;8.120;2023-03-04T07:05:38;100000.53;;;14.39;53.49
8039;BME280;4062;49.844;8.120;2023-03-04T07:07:40;100006.69;;;14.39;53.53
8039;BME280;4062;49.844;8.120;2023-03-04T07:09:41;100001.38;;;14.39;53.44
8039;BME280;4062;49.844;8.120;2023-03-04T07:11:43;100003.19;;;14.39;53.38
8039;BME280;4062;49.844;8.120;2023-03-04T07:13:44;100009.34;;;14.39;53.49
8039;BME280;4062;49.844;8.120;2023-03-04T07:15:46;100005.84;;;14.39;53.52
8039;BME280;4062;49.844;8.120;2023-03-04T07:17:47;100009.34;;;14.39;53.46
8039;BME280;4062;49.844;8.120;2023-03-04T07:19:47;100007.59;;;14.38;53.53
8039;BME280;4062;49.844;8.120;2023-03-04T07:21:49;100017.38;;;14.38;53.52
8039;BME280;4062;49.844;8.120;2023-03-04T07:23:49;100015.59;;;14.38;53.41
8039;BME280;4062;49.844;8.120;2023-03-04T07:25:50;100020.03;;;14.38;53.51
8039;BME280;4062;49.844;8.120;2023-03-04T07:27:52;100020.03;;;14.38;53.35
8039;BME280;4062;49.844;8.120;2023-03-04T07:29:53;100017.38;;;14.38;53.52
8039;BME280;4062;49.844;8.120;2023-03-04T07:31:54;100012.97;;;14.37;53.56
8039;BME280;4062;49.844;8.120;2023-03-04T07:34:04;100028.03;;;14.38;53.47
8039;BME280;4062;49.844;8.120;2023-03-04T07:36:06;100026.28;;;14.37;53.45
8039;BME280;4062;49.844;8.120;2023-03-04T07:38:07;100027.13;;;14.37;53.40
8039;BME280;4062;49.844;8.120;2023-03-04T07:40:09;100027.19;;;14.36;53.45
8039;BME280;4062;49.844;8.120;2023-03-04T07:42:10;100028.94;;;14.37;53.45
8039;BME280;4062;49.844;8.120;2023-03-04T07:44:14;100042.22;;;14.37;53.47
8039;BME280;4062;49.844;8.120;2023-03-04T07:46:17;100029.00;;;14.35;53.53
8039;BME280;4062;49.844;8.120;2023-03-04T07:48:18;100029.00;;;14.35;53.35
8039;BME280;4062;49.844;8.120;2023-03-04T07:50:20;100030.75;;;14.35;53.47
8039;BME280;4062;49.844;8.120;2023-03-04T07:52:21;100033.41;;;14.35;53.60
8039;BME280;4062;49.844;8.120;2023-03-04T07:54:22;100031.66;;;14.34;53.30
8039;BME280;4062;49.844;8.120;2023-03-04T07:56:29;100034.31;;;14.34;53.24
8039;BME280;4062;49.844;8.120;2023-03-04T07:58:30;100037.91;;;14.33;53.44
8039;BME280;4062;49.844;8.120;2023-03-04T08:00:31;100035.25;;;14.33;53.41
8039;BME280;4062;49.844;8.120;2023-03-04T08:02:32;100038.78;;;14.33;53.17
8039;BME280;4062;49.844;8.120;2023-03-04T08:04:33;100041.47;;;14.32;53.26
8039;BME280;4062;49.844;8.120;2023-03-04T08:06:34;100034.38;;;14.32;53.37
8039;BME280;4062;49.844;8.120;2023-03-04T08:08:36;100036.16;;;14.32;53.17
8039;BME280;4062;49.844;8.120;2023-03-04T08:10:37;100034.44;;;14.31;53.22
8039;BME280;4062;49.844;8.120;2023-03-04T08:12:39;100039.75;;;14.31;53.59
8039;BME280;4062;49.844;8.120;2023-03-04T08:14:40;100037.09;;;14.31;53.19
8039;BME280;4062;49.844;8.120;2023-03-04T08:16:44;100037.13;;;14.29;53.31
8039;BME280;4062;49.844;8.120;2023-03-04T08:18:49;100031.81;;;14.29;53.58
8039;BME280;4062;49.844;8.120;2023-03-04T08:20:53;100046.00;;;14.28;53.31
8039;BME280;4062;49.844;8.120;2023-03-04T08:22:54;100044.25;;;14.29;53.14
8039;BME280;4062;49.844;8.120;2023-03-04T08:24:55;100043.34;;;14.28;53.28
8039;BME280;4062;49.844;8.120;2023-03-04T08:26:55;100040.69;;;14.28;53.26
8039;BME280;4062;49.844;8.120;2023-03-04T08:29:01;100045.22;;;14.26;53.19
8039;BME280;4062;49.844;8.120;2023-03-04T08:31:02;100050.47;;;14.28;53.21
8039;BME280;4062;49.844;8.120;2023-03-04T08:33:03;100048.72;;;14.27;53.25
8039;BME280;4062;49.844;8.120;2023-03-04T08:35:04;100047.81;;;14.28;53.20
8039;BME280;4062;49.844;8.120;2023-03-04T08:37:05;100046.94;;;14.27;53.20
8039;BME280;4062;49.844;8.120;2023-03-04T08:39:08;100049.59;;;14.27;53.39
8039;BME280;4062;49.844;8.120;2023-03-04T08:41:09;100047.81;;;14.28;53.31
8039;BME280;4062;49.844;8.120;2023-03-04T08:43:10;100049.56;;;14.29;53.26
8039;BME280;4062;49.844;8.120;2023-03-04T08:45:11;100049.50;;;14.30;53.36
8039;BME280;4062;49.844;8.120;2023-03-04T08:47:12;100045.94;;;14.31;53.29
8039;BME280;4062;49.844;8.120;2023-03-04T08:49:13;100050.34;;;14.32;53.36
8039;BME280;4062;49.844;8.120;2023-03-04T08:51:15;100053.84;;;14.33;53.40
8039;BME280;4062;49.844;8.120;2023-03-04T08:53:18;100052.94;;;14.34;53.47
8039;BME280;4062;49.844;8.120;2023-03-04T08:55:19;100059.13;;;14.34;53.34
8039;BME280;4062;49.844;8.120;2023-03-04T08:57:20;100052.91;;;14.35;53.42
8039;BME280;4062;49.844;8.120;2023-03-04T08:59:21;100052.91;;;14.35;53.28
8039;BME280;4062;49.844;8.120;2023-03-04T09:01:22;100049.31;;;14.36;53.21
8039;BME280;4062;49.844;8.120;2023-03-04T09:03:22;100060.84;;;14.37;53.20
8039;BME280;4062;49.844;8.120;2023-03-04T09:05:23;100052.84;;;14.37;53.33
8039;BME280;4062;49.844;8.120;2023-03-04T09:07:24;100044.88;;;14.37;53.53
8039;BME280;4062;49.844;8.120;2023-03-04T09:09:25;100055.50;;;14.37;53.38
8039;BME280;4062;49.844;8.120;2023-03-04T09:11:26;100052.84;;;14.37;53.32
8039;BME280;4062;49.844;8.120;2023-03-04T09:13:29;100051.97;;;14.36;53.55
8039;BME280;4062;49.844;8.120;2023-03-04T09:15:30;100058.16;;;14.37;53.33
8039;BME280;4062;49.844;8.120;2023-03-04T09:17:32;100057.28;;;14.36;53.24
8039;BME280;4062;49.844;8.120;2023-03-04T09:19:33;100057.28;;;14.36;53.32
8039;BME280;4062;49.844;8.120;2023-03-04T09:21:34;100052.84;;;14.37;53.22
8039;BME280;4062;49.844;8.120;2023-03-04T09:23:35;100051.97;;;14.36;53.16
8039;BME280;4062;49.844;8.120;2023-03-04T09:25:37;100059.09;;;14.36;53.10
8039;BME280;4062;49.844;8.120;2023-03-04T09:27:39;100052.91;;;14.35;53.40
8039;BME280;4062;49.844;8.120;2023-03-04T09:29:39;100055.56;;;14.35;53.30
8039;BME280;4062;49.844;8.120;2023-03-04T09:31:42;100056.47;;;14.34;53.28
8039;BME280;4062;49.844;8.120;2023-03-04T09:33:43;100054.69;;;14.35;53.32
8039;BME280;4062;49.844;8.120;2023-03-04T09:35:44;100056.47;;;14.34;53.21
8039;BME280;4062;49.844;8.120;2023-03-04T09:37:45;100056.47;;;14.34;53.29
8039;BME280;4062;49.844;8.120;2023-03-04T09:39:46;100062.72;;;14.33;53.35
8039;BME280;4062;49.844;8.120;2023-03-04T09:41:52;100053.00;;;14.32;53.23
8039;BME280;4062;49.844;8.120;2023-03-04T09:43:57;100059.16;;;14.33;53.15
8039;BME280;4062;49.844;8.120;2023-03-04T09:46:05;100050.34;;;14.32;53.03
8039;BME280;4062;49.844;8.120;2023-03-04T09:48:11;100049.44;;;14.32;53.29
8039;BME280;4062;49.844;8.120;2023-03-04T09:50:13;100049.44;;;14.32;53.26
8039;BME280;4062;49.844;8.120;2023-03-04T10:00:13;100046.84;;;14.30;53.29
8039;BME280;4062;49.844;8.120;2023-03-04T10:03:05;100053.03;;;14.31;53.24
8039;BME280;4062;49.844;8.120;2023-03-04T10:05:05;100059.28;;;14.30;53.16
8039;BME280;4062;49.844;8.120;2023-03-04T10:07:27;100048.66;;;14.28;53.17
8039;BME280;4062;49.844;8.120;2023-03-04T10:09:47;100050.41;;;14.29;53.35
8039;BME280;4062;49.844;8.120;2023-03-04T10:12:03;100053.97;;;14.28;53.00
8039;BME280;4062;49.844;8.120;2023-03-04T10:21:47;100046.94;;;14.27;53.21
8039;BME280;4062;49.844;8.120;2023-03-04T10:23:49;100046.97;;;14.26;53.19
8039;BME280;4062;49.844;8.120;2023-03-04T10:25:51;100050.53;;;14.26;53.22
8039;BME280;4062;49.844;8.120;2023-03-04T10:28:00;100046.13;;;14.25;53.34
8039;BME280;4062;49.844;8.120;2023-03-04T10:30:03;100041.66;;;14.26;53.41
8039;BME280;4062;49.844;8.120;2023-03-04T10:32:16;100044.31;;;14.26;53.04
8039;BME280;4062;49.844;8.120;2023-03-04T10:34:18;100038.13;;;14.25;53.28
8039;BME280;4062;49.844;8.120;2023-03-04T10:38:38;100039.88;;;14.26;53.09
8039;BME280;4062;49.844;8.120;2023-03-04T10:40:40;100041.63;;;14.27;53.08
8039;BME280;4062;49.844;8.120;2023-03-04T10:42:41;100034.53;;;14.28;53.18
8039;BME280;4062;49.844;8.120;2023-03-04T10:44:55;100031.84;;;14.28;53.41
8039;BME280;4062;49.844;8.120;2023-03-04T10:46:57;100034.44;;;14.31;53.25
8039;BME280;4062;49.844;8.120;2023-03-04T10:48:58;100029.13;;;14.31;53.19
8039;BME280;4062;49.844;8.120;2023-03-04T10:51:22;100037.91;;;14.33;53.18
8039;BME280;4062;49.844;8.120;2023-03-04T10:53:29;100041.44;;;14.33;53.37
8039;BME280;4062;49.844;8.120;2023-03-04T10:55:44;100034.31;;;14.34;53.31
8039;BME280;4062;49.844;8.120;2023-03-04T10:57:49;100032.56;;;14.34;53.40
8039;BME280;4062;49.844;8.120;2023-03-04T10:59:57;100035.22;;;14.34;53.30
8039;BME280;4062;49.844;8.120;2023-03-04T11:02:01;100029.00;;;14.35;53.41
8039;BME280;4062;49.844;8.120;2023-03-04T11:04:02;100028.03;;;14.36;53.35
8039;BME280;4062;49.844;8.120;2023-03-04T11:08:20;100027.19;;;14.36;53.33
8039;BME280;4062;49.844;8.120;2023-03-04T11:10:30;100026.31;;;14.35;53.28
8039;BME280;4062;49.844;8.120;2023-03-04T11:12:35;100019.22;;;14.36;53.22
8039;BME280;4062;49.844;8.120;2023-03-04T11:14:50;100013.88;;;14.36;53.14
8039;BME280;4062;49.844;8.120;2023-03-04T11:17:00;100016.56;;;14.36;53.16
8039;BME280;4062;49.844;8.120;2023-03-04T11:19:15;100015.69;;;14.35;53.12
8039;BME280;4062;49.844;8.120;2023-03-04T11:21:24;100007.72;;;14.35;53.08